Catamarca, Catamarca International Airport (SANC)

NameCatamarca International Airport
CityCatamarca
CountryArgentina
ICAOSANC
IATACTC
Altitude464 m
CoordinatesGoogle Map
Live Air TrafficLiveATC.net
METARSANC 051245Z 18007KT 2500 DZRA BKN006 OVC060 19/19 Q1018
2018-03-05 12:45:00 Wind: South (180°) 3.6 m/s - Visibility: 2500 m - Weather: Drizzle Rain - Temperature: 19 °C - Dew point: 19 °C - Humidity: 100% - Pressure: 1018 hPa
Statistics

The table below shows the detailed information of all flights to/from Catamarca, Catamarca International Airport (SANC).